首页
METAR-TAF:

METAR-TAF

机场 :

伍拉·賴國際機場

丹帕沙, 印度尼西亚

纬度: 08-44-53S, 经度: 115-10-03E, 海拔: 4米

当前天气观测

该预报发布于41分钟前的02:00 UTC
风速7节,风向西转西北
温度 30°C
湿度 75%
气压 1013 hPa
能见度10公里或以上
少量云层高于1700英尺

METAR: WADD 170200Z 29007KT 9999 FEW017 30/25 Q1013 NOSIG

时间: 09:41 (02:41 UTC)

预报

该预报发布于3小时和41分钟前的23:00 UTC
预报有效从17日的 00点(UTC)到 18日的 00点(UTC)
风速5节,风向多变
能见度10公里或以上
散云层高于1700英尺
成为
从 17日的 05点(UTC)到 17日的 07点(UTC)
风速10节,风向南转南东

TAF: WADD 162300Z 1700/1800 VRB05KT 9999 SCT017 BECMG 1705/1707 16010KT

超过4000个机场的气象观测和天气预报(METAR&TAF报告)。

可查询的气象台以黄色和红色小点在地图上表示。

将鼠标移到小点上方,可查看气象台名称。

然后点击查看天气观测和预报。

如需切换地图:点击带黑十字的绿色按钮放大地图;点击带横线的绿色按钮缩小地图;或者点击绿色箭头查看邻近地区的地图。


METAR-TAF: